sensor_id;sensor_type;location;lat;lon;timestamp;pressure;altitude;pressure_sealevel;temperature
28305;BMP280;15569;42.652;23.040;2023-06-22T00:01:03;93492.13;;;22.25
28305;BMP280;15569;42.652;23.040;2023-06-22T00:03:29;93494.91;;;22.25
28305;BMP280;15569;42.652;23.040;2023-06-22T00:05:54;93491.44;;;22.24
28305;BMP280;15569;42.652;23.040;2023-06-22T00:08:20;93496.28;;;22.26
28305;BMP280;15569;42.652;23.040;2023-06-22T00:10:46;93485.84;;;22.22
28305;BMP280;15569;42.652;23.040;2023-06-22T00:13:12;93481.69;;;22.21
28305;BMP280;15569;42.652;23.040;2023-06-22T00:15:39;93483.09;;;22.22
28305;BMP280;15569;42.652;23.040;2023-06-22T00:18:09;93476.81;;;22.18
28305;BMP280;15569;42.652;23.040;2023-06-22T00:20:34;93475.41;;;22.15
28305;BMP280;15569;42.652;23.040;2023-06-22T00:23:03;93469.09;;;22.10
28305;BMP280;15569;42.652;23.040;2023-06-22T00:25:37;93464.25;;;22.09
28305;BMP280;15569;42.652;23.040;2023-06-22T00:28:03;93461.47;;;22.07
28305;BMP280;15569;42.652;23.040;2023-06-22T00:30:30;93463.53;;;22.06
28305;BMP280;15569;42.652;23.040;2023-06-22T00:32:56;93446.09;;;21.96
28305;BMP280;15569;42.652;23.040;2023-06-22T00:35:21;93458.66;;;22.05
28305;BMP280;15569;42.652;23.040;2023-06-22T00:37:46;93460.03;;;22.04
28305;BMP280;15569;42.652;23.040;2023-06-22T00:40:12;93464.16;;;22.01
28305;BMP280;15569;42.652;23.040;2023-06-22T00:42:38;93465.53;;;22.00
28305;BMP280;15569;42.652;23.040;2023-06-22T00:45:05;93453.03;;;21.97
28305;BMP280;15569;42.652;23.040;2023-06-22T00:47:31;93458.56;;;21.97
28305;BMP280;15569;42.652;23.040;2023-06-22T00:49:57;93450.88;;;21.89
28305;BMP280;15569;42.652;23.040;2023-06-22T00:52:23;93452.94;;;21.89
28305;BMP280;15569;42.652;23.040;2023-06-22T00:54:54;93461.97;;;21.89
28305;BMP280;15569;42.652;23.040;2023-06-22T00:57:21;93458.47;;;21.89
28305;BMP280;15569;42.652;23.040;2023-06-22T00:59:48;93465.38;;;21.90
28305;BMP280;15569;42.652;23.040;2023-06-22T01:02:13;93463.31;;;21.90
28305;BMP280;15569;42.652;23.040;2023-06-22T01:04:40;93468.13;;;21.88
28305;BMP280;15569;42.652;23.040;2023-06-22T01:09:49;93459.78;;;21.84
28305;BMP280;15569;42.652;23.040;2023-06-22T01:12:16;93457.03;;;21.86
28305;BMP280;15569;42.652;23.040;2023-06-22T01:14:47;93465.91;;;21.78
28305;BMP280;15569;42.652;23.040;2023-06-22T01:17:15;93469.28;;;21.71
28305;BMP280;15569;42.652;23.040;2023-06-22T01:19:46;93469.31;;;21.73
28305;BMP280;15569;42.652;23.040;2023-06-22T01:22:16;93466.56;;;21.73
28305;BMP280;15569;42.652;23.040;2023-06-22T01:27:32;93476.28;;;21.74
28305;BMP280;15569;42.652;23.040;2023-06-22T01:29:59;93481.81;;;21.76
28305;BMP280;15569;42.652;23.040;2023-06-22T01:32:32;93481.81;;;21.74
28305;BMP280;15569;42.652;23.040;2023-06-22T01:35:00;93480.47;;;21.77
28305;BMP280;15569;42.652;23.040;2023-06-22T01:37:27;93481.84;;;21.78
28305;BMP280;15569;42.652;23.040;2023-06-22T01:39:53;93485.34;;;21.80
28305;BMP280;15569;42.652;23.040;2023-06-22T01:42:20;93481.84;;;21.78
28305;BMP280;15569;42.652;23.040;2023-06-22T01:44:46;93490.16;;;21.78
28305;BMP280;15569;42.652;23.040;2023-06-22T01:47:12;93492.16;;;21.73
28305;BMP280;15569;42.652;23.040;2023-06-22T01:49:40;93490.13;;;21.74
28305;BMP280;15569;42.652;23.040;2023-06-22T01:52:06;93492.88;;;21.74
28305;BMP280;15569;42.652;23.040;2023-06-22T01:54:32;93495.59;;;21.70
28305;BMP280;15569;42.652;23.040;2023-06-22T01:56:57;93489.38;;;21.71
28305;BMP280;15569;42.652;23.040;2023-06-22T01:59:33;93491.44;;;21.69
28305;BMP280;15569;42.652;23.040;2023-06-22T02:02:07;93494.84;;;21.65
28305;BMP280;15569;42.652;23.040;2023-06-22T02:04:47;93505.19;;;21.65
28305;BMP280;15569;42.652;23.040;2023-06-22T02:07:15;93496.19;;;21.64
28305;BMP280;15569;42.652;23.040;2023-06-22T02:09:46;93500.31;;;21.61
28305;BMP280;15569;42.652;23.040;2023-06-22T02:12:17;93488.50;;;21.58
28305;BMP280;15569;42.652;23.040;2023-06-22T02:14:44;93481.56;;;21.57
28305;BMP280;15569;42.652;23.040;2023-06-22T02:17:11;93496.13;;;21.60
28305;BMP280;15569;42.652;23.040;2023-06-22T02:19:38;93497.47;;;21.57
28305;BMP280;15569;42.652;23.040;2023-06-22T02:22:04;93492.63;;;21.57
28305;BMP280;15569;42.652;23.040;2023-06-22T02:24:30;93491.94;;;21.57
28305;BMP280;15569;42.652;23.040;2023-06-22T02:27:00;93486.38;;;21.55
28305;BMP280;15569;42.652;23.040;2023-06-22T02:29:27;93486.97;;;21.47
28305;BMP280;15569;42.652;23.040;2023-06-22T02:31:53;93490.47;;;21.52
28305;BMP280;15569;42.652;23.040;2023-06-22T02:34:19;93484.25;;;21.51
28305;BMP280;15569;42.652;23.040;2023-06-22T02:36:46;93491.19;;;21.54
28305;BMP280;15569;42.652;23.040;2023-06-22T02:39:25;93480.13;;;21.54
28305;BMP280;15569;42.652;23.040;2023-06-22T02:41:54;93478.72;;;21.51
28305;BMP280;15569;42.652;23.040;2023-06-22T02:44:20;93489.13;;;21.53
28305;BMP280;15569;42.652;23.040;2023-06-22T02:46:47;93481.44;;;21.47
28305;BMP280;15569;42.652;23.040;2023-06-22T02:49:13;93475.94;;;21.49
28305;BMP280;15569;42.652;23.040;2023-06-22T02:51:41;93477.28;;;21.46
28305;BMP280;15569;42.652;23.040;2023-06-22T02:54:06;93478.63;;;21.45
28305;BMP280;15569;42.652;23.040;2023-06-22T02:56:32;93484.13;;;21.43
28305;BMP280;15569;42.652;23.040;2023-06-22T02:58:57;93486.22;;;21.45
28305;BMP280;15569;42.652;23.040;2023-06-22T03:01:30;93494.50;;;21.43
28305;BMP280;15569;42.652;23.040;2023-06-22T03:03:58;93495.13;;;21.39
28305;BMP280;15569;42.652;23.040;2023-06-22T03:06:23;93499.31;;;21.40
28305;BMP280;15569;42.652;23.040;2023-06-22T03:08:58;93499.31;;;21.42
28305;BMP280;15569;42.652;23.040;2023-06-22T03:11:24;93502.06;;;21.40
28305;BMP280;15569;42.652;23.040;2023-06-22T03:13:49;93501.34;;;21.40
28305;BMP280;15569;42.652;23.040;2023-06-22T03:16:17;93514.56;;;21.43
28305;BMP280;15569;42.652;23.040;2023-06-22T03:18:43;93507.66;;;21.44
28305;BMP280;15569;42.652;23.040;2023-06-22T03:21:08;93516.72;;;21.51
28305;BMP280;15569;42.652;23.040;2023-06-22T03:23:33;93516.03;;;21.50
28305;BMP280;15569;42.652;23.040;2023-06-22T03:25:59;93513.97;;;21.51
28305;BMP280;15569;42.652;23.040;2023-06-22T03:28:24;93518.81;;;21.50
28305;BMP280;15569;42.652;23.040;2023-06-22T03:30:49;93529.31;;;21.58
28305;BMP280;15569;42.652;23.040;2023-06-22T03:33:15;93530.75;;;21.61
28305;BMP280;15569;42.652;23.040;2023-06-22T03:35:40;93537.03;;;21.66
28305;BMP280;15569;42.652;23.040;2023-06-22T03:38:05;93539.81;;;21.68
28305;BMP280;15569;42.652;23.040;2023-06-22T03:40:31;93534.94;;;21.64
28305;BMP280;15569;42.652;23.040;2023-06-22T03:42:56;93532.94;;;21.71
28305;BMP280;15569;42.652;23.040;2023-06-22T03:45:22;93530.84;;;21.69
28305;BMP280;15569;42.652;23.040;2023-06-22T03:47:47;93530.84;;;21.69
28305;BMP280;15569;42.652;23.040;2023-06-22T03:50:12;93532.25;;;21.70
28305;BMP280;15569;42.652;23.040;2023-06-22T03:52:40;93535.72;;;21.69
28305;BMP280;15569;42.652;23.040;2023-06-22T03:55:06;93546.81;;;21.73
28305;BMP280;15569;42.652;23.040;2023-06-22T03:57:32;93531.56;;;21.70
28305;BMP280;15569;42.652;23.040;2023-06-22T03:59:58;93532.97;;;21.75
28305;BMP280;15569;42.652;23.040;2023-06-22T04:02:24;93517.69;;;21.68
28305;BMP280;15569;42.652;23.040;2023-06-22T04:04:49;93510.84;;;21.75
28305;BMP280;15569;42.652;23.040;2023-06-22T04:07:14;93527.59;;;21.83
28305;BMP280;15569;42.652;23.040;2023-06-22T04:09:40;93524.81;;;21.83
28305;BMP280;15569;42.652;23.040;2023-06-22T04:12:05;93534.00;;;21.95
28305;BMP280;15569;42.652;23.040;2023-06-22T04:14:31;93531.31;;;22.01
28305;BMP280;15569;42.652;23.040;2023-06-22T04:16:57;93534.91;;;22.12
28305;BMP280;15569;42.652;23.040;2023-06-22T04:19:23;93526.72;;;22.22
28305;BMP280;15569;42.652;23.040;2023-06-22T04:21:48;93519.13;;;22.24
28305;BMP280;15569;42.652;23.040;2023-06-22T04:24:14;93519.91;;;22.33
28305;BMP280;15569;42.652;23.040;2023-06-22T04:26:39;93519.91;;;22.33
28305;BMP280;15569;42.652;23.040;2023-06-22T04:29:07;93531.81;;;22.43
28305;BMP280;15569;42.652;23.040;2023-06-22T04:31:34;93529.13;;;22.49
28305;BMP280;15569;42.652;23.040;2023-06-22T04:34:03;93527.78;;;22.54
28305;BMP280;15569;42.652;23.040;2023-06-22T04:36:36;93525.75;;;22.57
28305;BMP280;15569;42.652;23.040;2023-06-22T04:39:07;93533.97;;;22.51
28305;BMP280;15569;42.652;23.040;2023-06-22T04:41:35;93532.59;;;22.50
28305;BMP280;15569;42.652;23.040;2023-06-22T04:44:16;93534.63;;;22.47
28305;BMP280;15569;42.652;23.040;2023-06-22T04:46:57;93536.13;;;22.56
28305;BMP280;15569;42.652;23.040;2023-06-22T04:49:27;93529.28;;;22.65
28305;BMP280;15569;42.652;23.040;2023-06-22T04:52:03;93527.78;;;22.54
28305;BMP280;15569;42.652;23.040;2023-06-22T04:54:29;93522.75;;;22.37
28305;BMP280;15569;42.652;23.040;2023-06-22T04:56:54;93535.06;;;22.24
28305;BMP280;15569;42.652;23.040;2023-06-22T04:59:27;93532.97;;;22.24
28305;BMP280;15569;42.652;23.040;2023-06-22T05:01:57;93542.47;;;22.07
28305;BMP280;15569;42.652;23.040;2023-06-22T05:04:24;93534.09;;;21.53
28305;BMP280;15569;42.652;23.040;2023-06-22T05:06:50;93536.50;;;21.31
28305;BMP280;15569;42.652;23.040;2023-06-22T05:09:16;93538.97;;;21.13
28305;BMP280;15569;42.652;23.040;2023-06-22T05:11:43;93532.25;;;21.70
28305;BMP280;15569;42.652;23.040;2023-06-22T05:14:08;93534.84;;;22.08
28305;BMP280;15569;42.652;23.040;2023-06-22T05:16:33;93542.59;;;22.19
28305;BMP280;15569;42.652;23.040;2023-06-22T05:18:59;93530.28;;;21.77
28305;BMP280;15569;42.652;23.040;2023-06-22T05:21:26;93536.22;;;22.07
28305;BMP280;15569;42.652;23.040;2023-06-22T05:23:53;93540.97;;;21.98
28305;BMP280;15569;42.652;23.040;2023-06-22T05:26:20;93536.34;;;21.65
28305;BMP280;15569;42.652;23.040;2023-06-22T05:28:46;93535.63;;;21.65
28305;BMP280;15569;42.652;23.040;2023-06-22T05:31:15;93547.41;;;21.67
28305;BMP280;15569;42.652;23.040;2023-06-22T05:33:42;93538.75;;;21.91
28305;BMP280;15569;42.652;23.040;2023-06-22T05:36:08;93550.22;;;22.21
28305;BMP280;15569;42.652;23.040;2023-06-22T05:38:34;93543.53;;;22.38
28305;BMP280;15569;42.652;23.040;2023-06-22T05:40:59;93561.00;;;22.50
28305;BMP280;15569;42.652;23.040;2023-06-22T05:43:25;93555.06;;;22.78
28305;BMP280;15569;42.652;23.040;2023-06-22T05:45:50;93561.31;;;22.80
28305;BMP280;15569;42.652;23.040;2023-06-22T05:48:16;93559.41;;;22.95
28305;BMP280;15569;42.652;23.040;2023-06-22T05:50:42;93558.75;;;23.01
28305;BMP280;15569;42.652;23.040;2023-06-22T05:53:07;93555.16;;;22.86
28305;BMP280;15569;42.652;23.040;2023-06-22T05:55:33;93542.88;;;23.05
28305;BMP280;15569;42.652;23.040;2023-06-22T05:57:59;93555.56;;;23.32
28305;BMP280;15569;42.652;23.040;2023-06-22T06:00:24;93544.56;;;23.42
28305;BMP280;15569;42.652;23.040;2023-06-22T06:02:51;93551.66;;;23.63
28305;BMP280;15569;42.652;23.040;2023-06-22T06:05:17;93549.94;;;23.22
28305;BMP280;15569;42.652;23.040;2023-06-22T06:07:45;93545.88;;;23.35
28305;BMP280;15569;42.652;23.040;2023-06-22T06:10:12;93541.56;;;23.18
28305;BMP280;15569;42.652;23.040;2023-06-22T06:12:38;93542.13;;;23.01
28305;BMP280;15569;42.652;23.040;2023-06-22T06:15:04;93547.78;;;23.15
28305;BMP280;15569;42.652;23.040;2023-06-22T06:17:30;93549.84;;;23.12
28305;BMP280;15569;42.652;23.040;2023-06-22T06:19:56;93549.25;;;23.24
28305;BMP280;15569;42.652;23.040;2023-06-22T06:22:22;93545.28;;;22.73
28305;BMP280;15569;42.652;23.040;2023-06-22T06:24:49;93548.97;;;22.93
28305;BMP280;15569;42.652;23.040;2023-06-22T06:27:14;93545.41;;;22.81
28305;BMP280;15569;42.652;23.040;2023-06-22T06:29:40;93542.88;;;23.05
28305;BMP280;15569;42.652;23.040;2023-06-22T06:32:05;93541.69;;;23.28
28305;BMP280;15569;42.652;23.040;2023-06-22T06:34:31;93534.00;;;23.27
28305;BMP280;15569;42.652;23.040;2023-06-22T06:36:57;93544.69;;;23.60
28305;BMP280;15569;42.652;23.040;2023-06-22T06:39:22;93539.31;;;23.90
28305;BMP280;15569;42.652;23.040;2023-06-22T06:41:47;93547.06;;;24.14
28305;BMP280;15569;42.652;23.040;2023-06-22T06:44:13;93549.19;;;24.17
28305;BMP280;15569;42.652;23.040;2023-06-22T06:46:38;93532.56;;;24.33
28305;BMP280;15569;42.652;23.040;2023-06-22T06:49:03;93531.88;;;24.35
28305;BMP280;15569;42.652;23.040;2023-06-22T06:51:29;93528.38;;;24.20
28305;BMP280;15569;42.652;23.040;2023-06-22T06:53:54;93534.63;;;24.33
28305;BMP280;15569;42.652;23.040;2023-06-22T06:56:20;93532.56;;;24.29
28305;BMP280;15569;42.652;23.040;2023-06-22T06:58:45;93530.47;;;24.32
28305;BMP280;15569;42.652;23.040;2023-06-22T07:01:12;93544.34;;;24.26
28305;BMP280;15569;42.652;23.040;2023-06-22T07:03:38;93532.56;;;24.33
28305;BMP280;15569;42.652;23.040;2023-06-22T07:06:03;93525.69;;;24.55
28305;BMP280;15569;42.652;23.040;2023-06-22T07:08:29;93524.97;;;24.54
28305;BMP280;15569;42.652;23.040;2023-06-22T07:10:54;93521.38;;;24.13
28305;BMP280;15569;42.652;23.040;2023-06-22T07:13:20;93522.19;;;24.44
28305;BMP280;15569;42.652;23.040;2023-06-22T07:15:45;93531.97;;;24.69
28305;BMP280;15569;42.652;23.040;2023-06-22T07:18:11;93535.44;;;24.72
28305;BMP280;15569;42.652;23.040;2023-06-22T07:20:36;93529.22;;;24.79
28305;BMP280;15569;42.652;23.040;2023-06-22T07:23:02;93537.59;;;25.01
28305;BMP280;15569;42.652;23.040;2023-06-22T07:25:27;93536.88;;;25.11
28305;BMP280;15569;42.652;23.040;2023-06-22T07:28:04;93538.28;;;25.12
28305;BMP280;15569;42.652;23.040;2023-06-22T07:30:30;93543.16;;;25.25
28305;BMP280;15569;42.652;23.040;2023-06-22T07:32:57;93542.44;;;25.41
28305;BMP280;15569;42.652;23.040;2023-06-22T07:35:23;93545.94;;;25.35
28305;BMP280;15569;42.652;23.040;2023-06-22T07:37:48;93545.25;;;25.45
28305;BMP280;15569;42.652;23.040;2023-06-22T07:40:14;93537.56;;;25.47
28305;BMP280;15569;42.652;23.040;2023-06-22T07:42:39;93536.19;;;25.28
28305;BMP280;15569;42.652;23.040;2023-06-22T07:45:05;93525.06;;;25.28
28305;BMP280;15569;42.652;23.040;2023-06-22T07:47:33;93528.53;;;25.43
28305;BMP280;15569;42.652;23.040;2023-06-22T07:50:01;93532.72;;;25.48
28305;BMP280;15569;42.652;23.040;2023-06-22T07:52:27;93536.91;;;25.57
28305;BMP280;15569;42.652;23.040;2023-06-22T07:54:53;93534.75;;;25.71
28305;BMP280;15569;42.652;23.040;2023-06-22T07:57:19;93534.72;;;25.81
28305;BMP280;15569;42.652;23.040;2023-06-22T07:59:45;93529.84;;;25.92
28305;BMP280;15569;42.652;23.040;2023-06-22T08:02:11;93527.72;;;26.03
28305;BMP280;15569;42.652;23.040;2023-06-22T08:04:36;93520.66;;;26.24
28305;BMP280;15569;42.652;23.040;2023-06-22T08:07:02;93522.03;;;26.27
28305;BMP280;15569;42.652;23.040;2023-06-22T08:09:28;93516.50;;;26.23
28305;BMP280;15569;42.652;23.040;2023-06-22T08:11:54;93522.06;;;26.21
28305;BMP280;15569;42.652;23.040;2023-06-22T08:14:21;93510.16;;;26.34
28305;BMP280;15569;42.652;23.040;2023-06-22T08:16:47;93517.78;;;26.40
28305;BMP280;15569;42.652;23.040;2023-06-22T08:19:12;93511.47;;;26.47
28305;BMP280;15569;42.652;23.040;2023-06-22T08:21:38;93510.72;;;26.59
28305;BMP280;15569;42.652;23.040;2023-06-22T08:24:04;93522.63;;;26.47
28305;BMP280;15569;42.652;23.040;2023-06-22T08:26:29;93514.19;;;26.63
28305;BMP280;15569;42.652;23.040;2023-06-22T08:28:54;93519.03;;;26.69
28305;BMP280;15569;42.652;23.040;2023-06-22T08:31:20;93507.94;;;26.55
28305;BMP280;15569;42.652;23.040;2023-06-22T08:33:45;93511.59;;;26.31
28305;BMP280;15569;42.652;23.040;2023-06-22T08:36:11;93511.41;;;26.63
28305;BMP280;15569;42.652;23.040;2023-06-22T08:38:38;93513.47;;;26.65
28305;BMP280;15569;42.652;23.040;2023-06-22T08:41:04;93516.19;;;26.79
28305;BMP280;15569;42.652;23.040;2023-06-22T08:43:29;93507.81;;;26.75
28305;BMP280;15569;42.652;23.040;2023-06-22T08:45:55;93495.97;;;26.74
28305;BMP280;15569;42.652;23.040;2023-06-22T08:48:20;93508.38;;;26.93
28305;BMP280;15569;42.652;23.040;2023-06-22T08:50:46;93505.47;;;27.09
28305;BMP280;15569;42.652;23.040;2023-06-22T08:53:11;93508.75;;;27.30
28305;BMP280;15569;42.652;23.040;2023-06-22T08:55:36;93508.66;;;27.42
28305;BMP280;15569;42.652;23.040;2023-06-22T08:58:02;93494.56;;;26.79
28305;BMP280;15569;42.652;23.040;2023-06-22T09:00:29;93502.78;;;26.97
28305;BMP280;15569;42.652;23.040;2023-06-22T09:02:57;93505.44;;;27.11
28305;BMP280;15569;42.652;23.040;2023-06-22T09:05:24;93491.31;;;27.31
28305;BMP280;15569;42.652;23.040;2023-06-22T09:07:50;93498.25;;;27.38
28305;BMP280;15569;42.652;23.040;2023-06-22T09:10:16;93493.22;;;27.49
28305;BMP280;15569;42.652;23.040;2023-06-22T09:12:41;93504.31;;;27.59
28305;BMP280;15569;42.652;23.040;2023-06-22T09:15:07;93497.97;;;27.64
28305;BMP280;15569;42.652;23.040;2023-06-22T09:17:33;93492.94;;;27.77
28305;BMP280;15569;42.652;23.040;2023-06-22T09:19:59;93504.84;;;27.76
28305;BMP280;15569;42.652;23.040;2023-06-22T09:22:25;93498.47;;;27.83
28305;BMP280;15569;42.652;23.040;2023-06-22T09:24:55;93485.09;;;27.92
28305;BMP280;15569;42.652;23.040;2023-06-22T09:27:21;93499.53;;;28.12
28305;BMP280;15569;42.652;23.040;2023-06-22T09:29:46;93504.25;;;28.24
28305;BMP280;15569;42.652;23.040;2023-06-22T09:32:11;93502.00;;;28.36
28305;BMP280;15569;42.652;23.040;2023-06-22T09:34:37;93500.25;;;28.09
28305;BMP280;15569;42.652;23.040;2023-06-22T09:37:02;93482.16;;;28.02
28305;BMP280;15569;42.652;23.040;2023-06-22T09:39:28;93495.41;;;28.05
28305;BMP280;15569;42.652;23.040;2023-06-22T09:41:53;93494.44;;;28.25
28305;BMP280;15569;42.652;23.040;2023-06-22T09:44:19;93495.63;;;28.42
28305;BMP280;15569;42.652;23.040;2023-06-22T09:46:44;93496.94;;;28.47
28305;BMP280;15569;42.652;23.040;2023-06-22T09:49:09;93495.63;;;28.40
28305;BMP280;15569;42.652;23.040;2023-06-22T09:51:35;93496.91;;;28.51
28305;BMP280;15569;42.652;23.040;2023-06-22T09:54:00;93486.09;;;28.71
28305;BMP280;15569;42.652;23.040;2023-06-22T09:56:26;93491.47;;;28.85
28305;BMP280;15569;42.652;23.040;2023-06-22T09:58:53;93489.03;;;29.06
28305;BMP280;15569;42.652;23.040;2023-06-22T10:01:19;93480.63;;;29.06
28305;BMP280;15569;42.652;23.040;2023-06-22T10:03:45;93480.81;;;28.96
28305;BMP280;15569;42.652;23.040;2023-06-22T10:06:11;93478.34;;;28.74
28305;BMP280;15569;42.652;23.040;2023-06-22T10:08:36;93476.72;;;28.89
28305;BMP280;15569;42.652;23.040;2023-06-22T10:11:03;93470.88;;;29.03
28305;BMP280;15569;42.652;23.040;2023-06-22T10:13:28;93474.19;;;29.15
28305;BMP280;15569;42.652;23.040;2023-06-22T10:15:54;93471.66;;;29.38
28305;BMP280;15569;42.652;23.040;2023-06-22T10:18:20;93479.75;;;29.54
28305;BMP280;15569;42.652;23.040;2023-06-22T10:20:48;93473.56;;;29.47
28305;BMP280;15569;42.652;23.040;2023-06-22T10:23:14;93467.94;;;29.49
28305;BMP280;15569;42.652;23.040;2023-06-22T10:25:39;93466.06;;;29.74
28305;BMP280;15569;42.652;23.040;2023-06-22T10:28:05;93465.47;;;29.70
28305;BMP280;15569;42.652;23.040;2023-06-22T10:30:30;93472.13;;;29.85
28305;BMP280;15569;42.652;23.040;2023-06-22T10:32:55;93461.66;;;29.84
28305;BMP280;15569;42.652;23.040;2023-06-22T10:35:21;93461.97;;;30.02
28305;BMP280;15569;42.652;23.040;2023-06-22T10:37:47;93462.47;;;30.13
28305;BMP280;15569;42.652;23.040;2023-06-22T10:40:13;93467.41;;;30.10
28305;BMP280;15569;42.652;23.040;2023-06-22T10:42:40;93460.22;;;30.19
28305;BMP280;15569;42.652;23.040;2023-06-22T10:45:06;93455.81;;;30.28
28305;BMP280;15569;42.652;23.040;2023-06-22T10:47:32;93455.31;;;30.50
28305;BMP280;15569;42.652;23.040;2023-06-22T10:49:57;93456.72;;;30.49
28305;BMP280;15569;42.652;23.040;2023-06-22T10:52:22;93447.66;;;30.47
28305;BMP280;15569;42.652;23.040;2023-06-22T10:54:48;93459.53;;;30.49
28305;BMP280;15569;42.652;23.040;2023-06-22T10:57:13;93469.59;;;30.38
28305;BMP280;15569;42.652;23.040;2023-06-22T10:59:39;93461.25;;;30.04
28305;BMP280;15569;42.652;23.040;2023-06-22T11:02:04;93456.72;;;29.51
28305;BMP280;15569;42.652;23.040;2023-06-22T11:04:30;93449.69;;;29.50
28305;BMP280;15569;42.652;23.040;2023-06-22T11:06:55;93449.69;;;29.87
28305;BMP280;15569;42.652;23.040;2023-06-22T11:09:21;93457.00;;;29.72
28305;BMP280;15569;42.652;23.040;2023-06-22T11:11:47;93455.06;;;29.62
28305;BMP280;15569;42.652;23.040;2023-06-22T11:14:13;93452.03;;;30.07
28305;BMP280;15569;42.652;23.040;2023-06-22T11:16:39;93451.06;;;30.21
28305;BMP280;15569;42.652;23.040;2023-06-22T11:19:05;93452.09;;;30.36
28305;BMP280;15569;42.652;23.040;2023-06-22T11:21:30;93452.94;;;30.61
28305;BMP280;15569;42.652;23.040;2023-06-22T11:23:56;93448.06;;;30.59
28305;BMP280;15569;42.652;23.040;2023-06-22T11:26:22;93428.94;;;30.66
28305;BMP280;15569;42.652;23.040;2023-06-22T11:28:47;93439.38;;;30.98
28305;BMP280;15569;42.652;23.040;2023-06-22T11:31:12;93440.03;;;31.27
28305;BMP280;15569;42.652;23.040;2023-06-22T11:33:38;93444.34;;;31.48
28305;BMP280;15569;42.652;23.040;2023-06-22T11:36:03;93446.69;;;31.40
28305;BMP280;15569;42.652;23.040;2023-06-22T11:38:29;93445.16;;;31.69
28305;BMP280;15569;42.652;23.040;2023-06-22T11:40:57;93441.03;;;31.15
28305;BMP280;15569;42.652;23.040;2023-06-22T11:43:22;93437.16;;;31.02
28305;BMP280;15569;42.652;23.040;2023-06-22T11:45:47;93444.69;;;31.10
28305;BMP280;15569;42.652;23.040;2023-06-22T11:48:13;93433.19;;;30.93
28305;BMP280;15569;42.652;23.040;2023-06-22T11:50:38;93432.06;;;30.82
28305;BMP280;15569;42.652;23.040;2023-06-22T11:53:03;93435.06;;;31.03
28305;BMP280;15569;42.652;23.040;2023-06-22T11:55:29;93436.44;;;30.75
28305;BMP280;15569;42.652;23.040;2023-06-22T11:57:56;93433.03;;;30.99
28305;BMP280;15569;42.652;23.040;2023-06-22T12:00:23;93427.50;;;31.22
28305;BMP280;15569;42.652;23.040;2023-06-22T12:02:50;93424.00;;;31.72
28305;BMP280;15569;42.652;23.040;2023-06-22T12:05:18;93423.28;;;31.72
28305;BMP280;15569;42.652;23.040;2023-06-22T12:07:44;93420.41;;;31.98
28305;BMP280;15569;42.652;23.040;2023-06-22T12:10:09;93416.75;;;32.26
28305;BMP280;15569;42.652;23.040;2023-06-22T12:12:35;93429.69;;;32.17
28305;BMP280;15569;42.652;23.040;2023-06-22T12:15:00;93432.22;;;32.25
28305;BMP280;15569;42.652;23.040;2023-06-22T12:17:29;93422.97;;;32.06
28305;BMP280;15569;42.652;23.040;2023-06-22T12:19:54;93422.91;;;32.74
28305;BMP280;15569;42.652;23.040;2023-06-22T12:22:19;93422.97;;;32.52
28305;BMP280;15569;42.652;23.040;2023-06-22T12:24:45;93427.47;;;32.42
28305;BMP280;15569;42.652;23.040;2023-06-22T12:27:10;93415.16;;;31.86
28305;BMP280;15569;42.652;23.040;2023-06-22T12:29:35;93421.13;;;31.50
28305;BMP280;15569;42.652;23.040;2023-06-22T12:32:01;93433.34;;;31.40
28305;BMP280;15569;42.652;23.040;2023-06-22T12:34:26;93451.41;;;30.94
28305;BMP280;15569;42.652;23.040;2023-06-22T12:36:51;93443.03;;;29.70
28305;BMP280;15569;42.652;23.040;2023-06-22T12:39:19;93443.44;;;29.11
28305;BMP280;15569;42.652;23.040;2023-06-22T12:41:45;93438.53;;;28.71
28305;BMP280;15569;42.652;23.040;2023-06-22T12:44:10;93445.44;;;29.17
28305;BMP280;15569;42.652;23.040;2023-06-22T12:46:36;93429.72;;;29.34
28305;BMP280;15569;42.652;23.040;2023-06-22T12:49:04;93440.03;;;29.07
28305;BMP280;15569;42.652;23.040;2023-06-22T12:51:29;93438.13;;;28.95
28305;BMP280;15569;42.652;23.040;2023-06-22T12:53:55;93456.22;;;29.39
28305;BMP280;15569;42.652;23.040;2023-06-22T12:56:20;93456.19;;;30.10
28305;BMP280;15569;42.652;23.040;2023-06-22T12:58:46;93435.22;;;30.07
28305;BMP280;15569;42.652;23.040;2023-06-22T13:01:11;93458.31;;;30.99
28305;BMP280;15569;42.652;23.040;2023-06-22T13:03:36;93433.94;;;31.18
28305;BMP280;15569;42.652;23.040;2023-06-22T13:06:02;93431.47;;;31.04
28305;BMP280;15569;42.652;23.040;2023-06-22T13:08:29;93436.53;;;31.00
28305;BMP280;15569;42.652;23.040;2023-06-22T13:10:54;93444.38;;;30.67
28305;BMP280;15569;42.652;23.040;2023-06-22T13:13:23;93432.16;;;30.19
28305;BMP280;15569;42.652;23.040;2023-06-22T13:15:50;93442.88;;;30.41
28305;BMP280;15569;42.652;23.040;2023-06-22T13:18:15;93446.31;;;31.01
28305;BMP280;15569;42.652;23.040;2023-06-22T13:20:41;93447.75;;;30.71
28305;BMP280;15569;42.652;23.040;2023-06-22T13:23:06;93448.41;;;30.15
28305;BMP280;15569;42.652;23.040;2023-06-22T13:25:32;93459.75;;;30.09
28305;BMP280;15569;42.652;23.040;2023-06-22T13:27:57;93463.31;;;30.38
28305;BMP280;15569;42.652;23.040;2023-06-22T13:30:23;93460.91;;;30.20
28305;BMP280;15569;42.652;23.040;2023-06-22T13:32:48;93444.09;;;29.85
28305;BMP280;15569;42.652;23.040;2023-06-22T13:35:14;93447.94;;;29.69
28305;BMP280;15569;42.652;23.040;2023-06-22T13:37:39;93448.25;;;29.53
28305;BMP280;15569;42.652;23.040;2023-06-22T13:40:06;93444.19;;;29.46
28305;BMP280;15569;42.652;23.040;2023-06-22T13:42:32;93457.31;;;29.19
28305;BMP280;15569;42.652;23.040;2023-06-22T13:44:58;93456.72;;;29.11
28305;BMP280;15569;42.652;23.040;2023-06-22T13:47:24;93435.66;;;29.16
28305;BMP280;15569;42.652;23.040;2023-06-22T13:49:49;93435.13;;;29.05
28305;BMP280;15569;42.652;23.040;2023-06-22T13:52:14;93457.72;;;28.95
28305;BMP280;15569;42.652;23.040;2023-06-22T13:54:40;93460.13;;;28.77
28305;BMP280;15569;42.652;23.040;2023-06-22T13:57:05;93468.06;;;28.62